createdAt,value
2023-02-13T00:00:41.977Z,83.28
2023-02-13T00:03:09.614Z,75.07
2023-02-13T00:05:38.628Z,73.78
2023-02-13T00:08:06.470Z,76.90
2023-02-13T00:10:34.382Z,71.35
2023-02-13T00:13:02.002Z,76.28
2023-02-13T00:15:29.725Z,80.50
2023-02-13T00:17:57.320Z,71.03
2023-02-13T00:20:25.181Z,69.78
2023-02-13T00:22:54.159Z,72.07
2023-02-13T00:25:21.757Z,68.13
2023-02-13T00:27:49.330Z,70.50
2023-02-13T00:30:17.522Z,65.37
2023-02-13T00:32:45.108Z,71.38
2023-02-13T00:35:12.727Z,71.88
2023-02-13T00:37:40.365Z,78.63
2023-02-13T00:40:10.455Z,76.18
2023-02-13T00:42:38.040Z,65.82
2023-02-13T00:45:06.293Z,70.18
2023-02-13T00:47:33.915Z,75.68
2023-02-13T00:50:01.551Z,71.55
2023-02-13T00:52:29.144Z,66.90
2023-02-13T00:54:56.720Z,73.90
2023-02-13T00:57:25.709Z,62.03
2023-02-13T00:59:53.268Z,88.43
2023-02-13T01:02:20.908Z,86.78
2023-02-13T01:04:48.501Z,70.57
2023-02-13T01:07:16.784Z,73.70
2023-02-13T01:09:44.679Z,99.40
2023-02-13T01:12:12.269Z,69.65
2023-02-13T01:14:41.203Z,84.72
2023-02-13T01:17:08.813Z,90.00
2023-02-13T01:19:36.367Z,61.33
2023-02-13T01:22:03.962Z,67.35
2023-02-13T01:24:33.170Z,69.27
2023-02-13T01:27:02.351Z,63.42
2023-02-13T01:29:30.011Z,76.65
2023-02-13T01:31:59.035Z,68.47
2023-02-13T01:34:26.705Z,66.15
2023-02-13T01:36:54.348Z,71.88
2023-02-13T01:39:21.996Z,148.52
2023-02-13T01:41:49.578Z,122.45
2023-02-13T01:44:49.568Z,83.90
2023-02-13T01:47:25.194Z,108.97
2023-02-13T01:50:02.605Z,71.88
2023-02-13T01:52:30.962Z,96.63
2023-02-13T01:54:58.645Z,89.63
2023-02-13T01:57:29.776Z,97.40
2023-02-13T02:00:03.182Z,83.70
2023-02-13T02:02:36.141Z,73.57
2023-02-13T02:05:05.116Z,82.15
2023-02-13T02:07:34.083Z,79.43
2023-02-13T02:10:06.317Z,100.97
2023-02-13T02:12:40.332Z,151.27
2023-02-13T02:15:09.170Z,86.97
2023-02-13T02:17:38.404Z,144.95
2023-02-13T02:20:20.984Z,131.85
2023-02-13T02:23:15.013Z,121.28
2023-02-13T02:26:29.248Z,80.80
2023-02-13T02:29:22.891Z,97.88
2023-02-13T02:32:11.956Z,144.55
2023-02-13T02:34:52.074Z,135.73
2023-02-13T02:37:38.695Z,136.48
2023-02-13T02:40:17.664Z,96.00
2023-02-13T02:42:58.926Z,182.98
2023-02-13T02:45:34.767Z,138.63
2023-02-13T02:48:28.396Z,156.68
2023-02-13T02:51:02.567Z,99.60
2023-02-13T02:53:34.298Z,125.28
2023-02-13T02:56:09.446Z,106.93
2023-02-13T02:59:00.421Z,123.37
2023-02-13T03:01:48.667Z,152.77
2023-02-13T03:04:42.673Z,163.02
2023-02-13T03:07:14.972Z,84.43
2023-02-13T03:10:04.829Z,111.50
2023-02-13T03:12:57.140Z,66.20
2023-02-13T03:15:27.291Z,55.55
2023-02-13T03:18:12.817Z,108.30
2023-02-13T03:21:04.822Z,99.47
2023-02-13T03:23:43.283Z,132.00
2023-02-13T03:26:45.476Z,96.63
2023-02-13T03:29:39.115Z,105.97
2023-02-13T03:32:17.683Z,96.05
2023-02-13T03:35:10.348Z,78.10
2023-02-13T03:37:57.422Z,69.18
2023-02-13T03:40:32.253Z,111.47
2023-02-13T03:43:09.210Z,114.32
2023-02-13T03:45:56.642Z,63.65
2023-02-13T03:48:45.709Z,62.85
2023-02-13T03:51:17.454Z,83.15
2023-02-13T03:53:49.104Z,64.60
2023-02-13T03:56:37.355Z,65.32
2023-02-13T03:59:16.930Z,67.28
2023-02-13T04:01:50.325Z,86.10
2023-02-13T04:04:26.328Z,95.25
2023-02-13T04:06:57.284Z,70.38
2023-02-13T04:09:28.344Z,65.78
2023-02-13T04:12:03.846Z,65.27
2023-02-13T04:14:37.795Z,60.22
2023-02-13T04:17:08.140Z,57.33
2023-02-13T04:19:36.073Z,61.20
2023-02-13T04:22:04.098Z,68.13
2023-02-13T04:24:33.154Z,77.93
2023-02-13T04:27:01.059Z,68.88
2023-02-13T04:29:28.704Z,68.78
2023-02-13T04:31:56.409Z,68.80
2023-02-13T04:34:23.999Z,61.63
2023-02-13T04:36:51.591Z,77.50
2023-02-13T04:39:19.130Z,66.80
2023-02-13T04:41:48.065Z,97.60
2023-02-13T04:44:15.624Z,66.35
2023-02-13T04:46:43.250Z,64.00
2023-02-13T04:49:11.229Z,63.67
2023-02-13T04:51:39.029Z,56.92
2023-02-13T04:54:06.681Z,61.53
2023-02-13T04:56:34.309Z,63.40
2023-02-13T04:59:03.305Z,52.20
2023-02-13T05:01:31.385Z,52.13
2023-02-13T05:03:58.980Z,56.72
2023-02-13T05:06:26.627Z,54.38
2023-02-13T05:08:54.266Z,55.65
2023-02-13T05:11:21.890Z,60.50
2023-02-13T05:13:49.490Z,59.20
2023-02-13T05:16:18.432Z,61.60
2023-02-13T05:18:45.976Z,64.47
2023-02-13T05:21:42.731Z,67.05
2023-02-13T05:24:10.376Z,66.63
2023-02-13T05:26:37.997Z,63.80
2023-02-13T05:29:22.517Z,66.68
2023-02-13T05:31:53.697Z,79.97
2023-02-13T05:34:21.888Z,66.72
2023-02-13T05:36:49.715Z,60.23
2023-02-13T05:39:17.434Z,68.03
2023-02-13T05:41:45.802Z,54.13
2023-02-13T05:44:14.018Z,58.78
2023-02-13T05:46:43.108Z,53.60
2023-02-13T05:49:13.316Z,53.10
2023-02-13T05:51:41.036Z,54.17
2023-02-13T05:54:08.868Z,53.00
2023-02-13T05:56:36.497Z,52.28
2023-02-13T05:59:04.110Z,51.45
2023-02-13T06:01:31.740Z,49.80
2023-02-13T06:04:00.944Z,50.38
2023-02-13T06:06:31.749Z,55.67
2023-02-13T06:08:59.310Z,53.63
2023-02-13T06:11:26.914Z,56.95
2023-02-13T06:13:54.502Z,53.53
2023-02-13T06:16:22.451Z,53.72
2023-02-13T06:18:50.081Z,52.38
2023-02-13T06:21:17.713Z,56.28
2023-02-13T06:23:46.723Z,54.38
2023-02-13T06:26:14.513Z,55.28
2023-02-13T06:28:42.260Z,53.72
2023-02-13T06:31:09.977Z,54.63
2023-02-13T06:33:37.715Z,54.28
2023-02-13T06:36:05.628Z,53.47
2023-02-13T06:38:33.208Z,52.78
2023-02-13T06:41:03.006Z,56.95
2023-02-13T06:43:30.907Z,50.67
2023-02-13T06:45:58.538Z,54.80
2023-02-13T06:48:26.488Z,52.22
2023-02-13T06:50:54.328Z,49.10
2023-02-13T06:53:24.713Z,56.45
2023-02-13T06:55:53.845Z,49.30
2023-02-13T06:58:24.159Z,50.00
2023-02-13T07:00:53.107Z,52.83
2023-02-13T07:03:20.905Z,52.88
2023-02-13T07:05:51.813Z,54.10
2023-02-13T07:08:19.786Z,54.20
2023-02-13T07:10:47.391Z,55.75
2023-02-13T07:13:15.153Z,53.67
2023-02-13T07:15:44.577Z,59.70
2023-02-13T07:18:12.349Z,54.72
2023-02-13T07:20:39.983Z,56.53
2023-02-13T07:23:07.929Z,50.97
2023-02-13T07:25:35.599Z,53.83
2023-02-13T07:28:04.453Z,55.50
2023-02-13T07:30:32.307Z,53.20
2023-02-13T07:33:02.448Z,53.37
2023-02-13T07:35:30.360Z,51.67
2023-02-13T07:37:58.051Z,51.63
2023-02-13T07:40:25.694Z,50.47
2023-02-13T07:42:53.285Z,51.88
2023-02-13T07:45:20.896Z,49.73
2023-02-13T07:47:48.496Z,47.70
2023-02-13T07:50:17.903Z,48.85
2023-02-13T07:52:45.650Z,51.50
2023-02-13T07:55:13.527Z,49.67
2023-02-13T07:57:41.138Z,48.80
2023-02-13T08:00:09.998Z,46.43
2023-02-13T08:02:37.640Z,54.65
2023-02-13T08:05:06.288Z,51.50
2023-02-13T08:07:35.878Z,51.10
2023-02-13T08:10:22.179Z,48.28
2023-02-13T08:12:49.970Z,45.63
2023-02-13T08:15:17.687Z,45.42
2023-02-13T08:17:45.446Z,46.80
2023-02-13T08:20:13.315Z,43.58
2023-02-13T08:22:42.227Z,42.30
2023-02-13T08:25:09.994Z,43.20
2023-02-13T08:27:37.691Z,43.77
2023-02-13T08:30:06.785Z,43.77
2023-02-13T08:32:48.351Z,44.05
2023-02-13T08:35:19.689Z,42.42
2023-02-13T08:37:48.672Z,42.40
2023-02-13T08:40:16.364Z,40.95
2023-02-13T08:42:43.931Z,39.10
2023-02-13T08:45:11.674Z,38.78
2023-02-13T08:47:40.068Z,37.70
2023-02-13T08:50:08.768Z,38.67
2023-02-13T08:52:36.714Z,38.55
2023-02-13T08:55:06.228Z,37.70
2023-02-13T08:57:33.788Z,37.75
2023-02-13T09:00:01.380Z,36.17
2023-02-13T09:02:29.233Z,39.00
2023-02-13T09:04:56.783Z,40.45
2023-02-13T09:07:24.458Z,40.92
2023-02-13T09:09:52.295Z,38.63
2023-02-13T09:12:21.289Z,37.53
2023-02-13T09:14:49.134Z,35.75
2023-02-13T09:17:18.882Z,38.20
2023-02-13T09:19:46.733Z,36.67
2023-02-13T09:22:17.054Z,37.28
2023-02-13T09:24:44.705Z,40.58
2023-02-13T09:27:12.358Z,39.13
2023-02-13T09:29:41.361Z,37.97
2023-02-13T09:32:09.006Z,39.03
2023-02-13T09:34:36.691Z,38.53
2023-02-13T09:37:04.550Z,38.17
2023-02-13T09:39:32.079Z,36.08
2023-02-13T09:42:01.321Z,34.75
2023-02-13T09:44:36.188Z,36.17
2023-02-13T09:47:11.371Z,33.83
2023-02-13T09:49:45.151Z,32.95
2023-02-13T09:52:13.044Z,31.40
2023-02-13T09:54:40.644Z,29.10
2023-02-13T09:57:17.745Z,26.60
2023-02-13T09:59:57.792Z,28.20
2023-02-13T10:02:39.873Z,27.10
2023-02-13T10:05:18.998Z,26.85
2023-02-13T10:07:55.775Z,25.38
2023-02-13T10:10:35.266Z,24.27
2023-02-13T10:13:24.476Z,26.07
2023-02-13T10:15:59.642Z,25.77
2023-02-13T10:18:38.660Z,23.90
2023-02-13T10:21:08.668Z,23.60
2023-02-13T10:23:40.539Z,22.63
2023-02-13T10:26:13.736Z,17.95
2023-02-13T10:28:45.710Z,16.77
2023-02-13T10:31:16.752Z,19.50
2023-02-13T10:33:50.590Z,18.17
2023-02-13T10:36:22.130Z,18.80
2023-02-13T10:38:57.843Z,17.10
2023-02-13T10:41:29.436Z,19.83
2023-02-13T10:44:13.573Z,18.42
2023-02-13T10:46:52.502Z,18.95
2023-02-13T10:49:40.079Z,18.27
2023-02-13T10:52:23.512Z,17.52
2023-02-13T10:55:06.580Z,16.42
2023-02-13T10:57:47.492Z,17.95
2023-02-13T11:00:19.689Z,17.75
2023-02-13T11:02:47.702Z,19.67
2023-02-13T11:05:20.273Z,18.00
2023-02-13T11:07:49.063Z,17.48
2023-02-13T11:10:19.208Z,16.85
2023-02-13T11:12:47.570Z,16.70
2023-02-13T11:15:27.220Z,17.52
2023-02-13T11:17:57.118Z,16.80
2023-02-13T11:20:35.846Z,17.83
2023-02-13T11:23:27.321Z,27.77
2023-02-13T11:25:58.801Z,16.48
2023-02-13T11:28:28.788Z,18.17
2023-02-13T11:31:11.489Z,17.73
2023-02-13T11:33:39.262Z,18.95
2023-02-13T11:36:10.564Z,16.55
2023-02-13T11:38:38.301Z,15.95
2023-02-13T11:41:09.994Z,17.47
2023-02-13T11:43:44.682Z,59.75
2023-02-13T11:46:19.450Z,48.28
2023-02-13T11:49:01.575Z,183.98
2023-02-13T11:51:43.165Z,108.25
2023-02-13T11:54:27.577Z,17.40
2023-02-13T11:57:05.404Z,20.80
2023-02-13T11:59:59.375Z,17.95
2023-02-13T12:02:28.739Z,17.47
2023-02-13T12:05:15.074Z,16.45
2023-02-13T12:07:45.241Z,14.48
2023-02-13T12:10:21.825Z,15.88
2023-02-13T12:12:57.605Z,17.10
2023-02-13T12:15:27.704Z,16.10
2023-02-13T12:18:06.117Z,16.30
2023-02-13T12:20:41.865Z,15.38
2023-02-13T12:23:27.558Z,14.73
2023-02-13T12:26:14.313Z,14.40
2023-02-13T12:29:07.786Z,15.00
2023-02-13T12:31:50.275Z,16.23
2023-02-13T12:35:02.627Z,16.92
2023-02-13T12:37:58.085Z,16.08
2023-02-13T12:40:48.302Z,14.00
2023-02-13T12:43:35.099Z,15.30
2023-02-13T12:46:09.329Z,15.43
2023-02-13T12:48:44.933Z,14.45
2023-02-13T12:51:31.781Z,13.93
2023-02-13T12:54:19.173Z,14.43
2023-02-13T12:57:00.397Z,15.70
2023-02-13T12:59:42.958Z,14.18
2023-02-13T13:02:39.268Z,14.82
2023-02-13T13:05:20.430Z,14.10
2023-02-13T13:08:01.593Z,13.43
2023-02-13T13:10:48.316Z,15.63
2023-02-13T13:13:32.241Z,14.82
2023-02-13T13:16:06.797Z,14.15
2023-02-13T13:18:44.978Z,14.82
2023-02-13T13:21:21.445Z,17.10
2023-02-13T13:23:57.294Z,15.35
2023-02-13T13:26:35.890Z,14.05
2023-02-13T13:29:08.487Z,15.43
2023-02-13T13:31:37.833Z,15.88
2023-02-13T13:34:13.160Z,14.10
2023-02-13T13:36:49.408Z,14.35
2023-02-13T13:39:28.910Z,15.30
2023-02-13T13:42:09.720Z,13.88
2023-02-13T13:45:04.780Z,13.77
2023-02-13T13:47:48.047Z,15.27
2023-02-13T13:50:20.844Z,13.50
2023-02-13T13:53:07.322Z,15.52
2023-02-13T13:56:09.194Z,13.80
2023-02-13T13:58:40.633Z,13.75
2023-02-13T14:01:22.190Z,14.53
2023-02-13T14:03:50.570Z,14.82
2023-02-13T14:06:19.703Z,13.68
2023-02-13T14:09:22.591Z,15.57
2023-02-13T14:11:50.143Z,14.50
2023-02-13T14:14:52.486Z,14.73
2023-02-13T14:17:54.454Z,14.40
2023-02-13T14:20:29.206Z,15.60
2023-02-13T14:22:57.456Z,15.50
2023-02-13T14:25:26.561Z,12.82
2023-02-13T14:28:00.356Z,14.85
2023-02-13T14:30:31.373Z,15.20
2023-02-13T14:33:05.813Z,14.30
2023-02-13T14:35:37.183Z,14.55
2023-02-13T14:38:08.026Z,16.52
2023-02-13T14:40:54.274Z,15.85
2023-02-13T14:43:29.748Z,16.52
2023-02-13T14:46:00.011Z,15.00
2023-02-13T14:48:38.706Z,15.17
2023-02-13T14:51:07.263Z,15.85
2023-02-13T14:53:46.503Z,16.48
2023-02-13T14:56:18.747Z,15.90
2023-02-13T14:58:51.160Z,17.75
2023-02-13T15:01:26.308Z,18.13
2023-02-13T15:04:00.810Z,15.35
2023-02-13T15:06:33.169Z,15.00
2023-02-13T15:09:05.432Z,17.05
2023-02-13T15:11:39.140Z,17.27
2023-02-13T15:14:25.525Z,14.90
2023-02-13T15:16:58.238Z,20.10
2023-02-13T15:19:28.492Z,19.25
2023-02-13T15:21:59.482Z,14.80
2023-02-13T15:24:28.292Z,20.08
2023-02-13T15:27:02.003Z,17.30
2023-02-13T15:29:40.989Z,17.13
2023-02-13T15:32:20.833Z,16.60
2023-02-13T15:34:50.501Z,19.00
2023-02-13T15:37:25.486Z,16.27
2023-02-13T15:39:53.196Z,16.38
2023-02-13T15:42:21.028Z,18.83
2023-02-13T15:44:51.127Z,16.25
2023-02-13T15:47:24.452Z,16.98
2023-02-13T15:49:53.449Z,17.40
2023-02-13T15:52:26.261Z,26.60
2023-02-13T15:54:56.164Z,26.13
2023-02-13T15:57:26.787Z,44.58
2023-02-13T15:59:56.305Z,26.38
2023-02-13T16:02:30.738Z,21.40
2023-02-13T16:05:02.285Z,19.95
2023-02-13T16:07:30.594Z,19.27
2023-02-13T16:10:16.051Z,18.35
2023-02-13T16:12:48.053Z,19.83
2023-02-13T16:15:19.311Z,22.63
2023-02-13T16:17:48.338Z,20.25
2023-02-13T16:20:23.609Z,20.73
2023-02-13T16:22:54.200Z,18.23
2023-02-13T16:25:27.442Z,25.90
2023-02-13T16:27:57.660Z,39.35
2023-02-13T16:30:33.454Z,26.60
2023-02-13T16:33:23.913Z,26.83
2023-02-13T16:35:55.056Z,23.73
2023-02-13T16:38:29.595Z,20.70
2023-02-13T16:40:58.871Z,18.23
2023-02-13T16:43:51.672Z,22.10
2023-02-13T16:46:25.535Z,19.98
2023-02-13T16:49:17.038Z,17.23
2023-02-13T16:51:49.765Z,17.77
2023-02-13T16:54:21.986Z,18.02
2023-02-13T16:56:52.758Z,19.35
2023-02-13T16:59:25.980Z,20.20
2023-02-13T17:02:16.818Z,17.80
2023-02-13T17:04:46.079Z,21.63
2023-02-13T17:07:17.358Z,18.70
2023-02-13T17:09:44.938Z,19.15
2023-02-13T17:12:15.751Z,21.13
2023-02-13T17:14:43.436Z,18.13
2023-02-13T17:17:13.993Z,17.85
2023-02-13T17:19:41.717Z,17.42
2023-02-13T17:22:14.389Z,18.88
2023-02-13T17:24:43.622Z,21.55
2023-02-13T17:27:11.811Z,21.83
2023-02-13T17:29:39.328Z,22.85
2023-02-13T17:32:06.966Z,19.08
2023-02-13T17:34:34.553Z,20.40
2023-02-13T17:37:02.085Z,23.73
2023-02-13T17:39:29.640Z,28.38
2023-02-13T17:41:58.559Z,29.55
2023-02-13T17:44:26.216Z,30.67
2023-02-13T17:46:53.768Z,22.52
2023-02-13T17:49:21.375Z,19.08
2023-02-13T17:51:48.926Z,23.05
2023-02-13T17:54:16.499Z,21.42
2023-02-13T17:56:44.199Z,20.48
2023-02-13T17:59:13.120Z,19.58
2023-02-13T18:01:40.720Z,21.10
2023-02-13T18:04:08.336Z,22.35
2023-02-13T18:06:35.896Z,25.47
2023-02-13T18:09:03.493Z,25.30
2023-02-13T18:11:31.273Z,24.80
2023-02-13T18:13:58.899Z,25.95
2023-02-13T18:16:27.851Z,26.00
2023-02-13T18:18:55.468Z,27.17
2023-02-13T18:21:23.424Z,24.33
2023-02-13T18:23:53.252Z,23.55
2023-02-13T18:26:20.841Z,24.08
2023-02-13T18:28:52.121Z,23.67
2023-02-13T18:31:19.931Z,22.63
2023-02-13T18:33:48.959Z,23.50
2023-02-13T18:36:16.602Z,22.05
2023-02-13T18:38:44.171Z,22.08
2023-02-13T18:41:11.791Z,22.08
2023-02-13T18:43:40.313Z,24.20
2023-02-13T18:46:07.945Z,21.75
2023-02-13T18:48:35.670Z,25.55
2023-02-13T18:51:04.935Z,22.85
2023-02-13T18:53:32.491Z,23.63
2023-02-13T18:56:01.628Z,22.55
2023-02-13T18:58:29.441Z,22.10
2023-02-13T19:00:57.418Z,23.02
2023-02-13T19:03:25.504Z,26.98
2023-02-13T19:05:53.077Z,24.80
2023-02-13T19:08:21.975Z,25.30
2023-02-13T19:10:49.796Z,27.67
2023-02-13T19:13:17.527Z,25.25
2023-02-13T19:15:45.243Z,25.48
2023-02-13T19:18:13.205Z,26.33
2023-02-13T19:20:41.457Z,25.75
2023-02-13T19:23:09.246Z,28.25
2023-02-13T19:25:39.352Z,27.70
2023-02-13T19:28:07.036Z,32.97
2023-02-13T19:30:35.203Z,25.17
2023-02-13T19:33:02.963Z,27.20
2023-02-13T19:35:30.649Z,29.70
2023-02-13T19:37:58.303Z,30.70
2023-02-13T19:40:26.048Z,26.95
2023-02-13T19:42:55.338Z,25.80
2023-02-13T19:45:23.057Z,46.85
2023-02-13T19:47:50.749Z,28.95
2023-02-13T19:50:18.564Z,26.30
2023-02-13T19:52:46.336Z,47.08
2023-02-13T19:55:14.097Z,23.77
2023-02-13T19:57:41.822Z,26.27
2023-02-13T20:00:12.139Z,25.60
2023-02-13T20:02:40.036Z,26.58
2023-02-13T20:05:08.928Z,26.23
2023-02-13T20:07:36.774Z,26.50
2023-02-13T20:10:05.794Z,25.90
2023-02-13T20:12:33.857Z,24.38
2023-02-13T20:15:01.638Z,23.27
2023-02-13T20:17:30.726Z,23.52
2023-02-13T20:19:59.000Z,25.88
2023-02-13T20:22:26.783Z,24.23
2023-02-13T20:24:54.548Z,25.42
2023-02-13T20:27:22.264Z,26.83
2023-02-13T20:29:51.407Z,25.60
2023-02-13T20:32:19.284Z,24.90
2023-02-13T20:34:59.511Z,25.42
2023-02-13T20:37:27.706Z,27.38
2023-02-13T20:39:55.589Z,23.20
2023-02-13T20:42:23.334Z,25.73
2023-02-13T20:44:51.126Z,24.45
2023-02-13T20:47:19.107Z,23.02
2023-02-13T20:49:48.953Z,22.27
2023-02-13T20:52:16.770Z,23.10
2023-02-13T20:54:44.563Z,23.33
2023-02-13T20:57:13.394Z,23.20
2023-02-13T20:59:44.897Z,24.77
2023-02-13T21:02:13.429Z,22.58
2023-02-13T21:04:41.364Z,23.52
2023-02-13T21:07:10.487Z,22.37
2023-02-13T21:09:38.783Z,25.13
2023-02-13T21:12:07.048Z,23.92
2023-02-13T21:14:35.123Z,26.38
2023-02-13T21:17:03.069Z,27.15
2023-02-13T21:19:31.990Z,27.42
2023-02-13T21:22:11.013Z,25.40
2023-02-13T21:24:41.244Z,27.90
2023-02-13T21:27:10.345Z,25.85
2023-02-13T21:29:38.891Z,29.13
2023-02-13T21:32:06.541Z,30.33
2023-02-13T21:34:34.339Z,30.75
2023-02-13T21:37:02.225Z,38.75
2023-02-13T21:39:29.832Z,43.45
2023-02-13T21:41:58.964Z,41.03
2023-02-13T21:44:26.641Z,36.38
2023-02-13T21:46:54.292Z,34.40
2023-02-13T21:49:21.983Z,32.57
2023-02-13T21:51:49.589Z,43.38
2023-02-13T21:54:17.211Z,34.70
2023-02-13T21:56:45.230Z,28.65
2023-02-13T21:59:16.512Z,28.80
2023-02-13T22:01:46.354Z,32.83
2023-02-13T22:04:14.304Z,36.60
2023-02-13T22:06:41.970Z,35.08
2023-02-13T22:09:11.688Z,36.30
2023-02-13T22:11:39.933Z,52.47
2023-02-13T22:14:09.911Z,47.97
2023-02-13T22:16:40.030Z,49.13
2023-02-13T22:19:08.397Z,42.75
2023-02-13T22:21:37.068Z,40.17
2023-02-13T22:24:05.271Z,30.23
2023-02-13T22:26:34.917Z,27.23
2023-02-13T22:29:04.502Z,29.17
2023-02-13T22:31:32.529Z,33.67
2023-02-13T22:34:04.613Z,36.88
2023-02-13T22:36:32.887Z,35.85
2023-02-13T22:39:00.471Z,29.73
2023-02-13T22:41:28.668Z,28.60
2023-02-13T22:43:56.362Z,55.88
2023-02-13T22:46:25.960Z,109.63
2023-02-13T22:48:54.329Z,97.55
2023-02-13T22:51:25.326Z,54.40
2023-02-13T22:53:53.885Z,41.00
2023-02-13T22:56:21.976Z,29.10
2023-02-13T22:58:49.691Z,36.28
2023-02-13T23:01:20.266Z,30.33
2023-02-13T23:03:48.524Z,31.02
2023-02-13T23:06:16.809Z,33.92
2023-02-13T23:08:48.902Z,29.38
2023-02-13T23:11:35.713Z,30.33
2023-02-13T23:14:04.322Z,27.00
2023-02-13T23:16:52.643Z,30.75
2023-02-13T23:19:19.648Z,42.13
2023-02-13T23:21:47.219Z,51.65
2023-02-13T23:24:16.495Z,48.17
2023-02-13T23:26:44.415Z,66.82
2023-02-13T23:29:12.125Z,54.42
2023-02-13T23:31:39.829Z,49.53
2023-02-13T23:34:07.507Z,58.95
2023-02-13T23:36:35.337Z,72.93
2023-02-13T23:39:03.046Z,72.15
2023-02-13T23:41:32.207Z,91.65
2023-02-13T23:43:59.732Z,56.93
2023-02-13T23:46:27.525Z,69.15
2023-02-13T23:48:55.219Z,53.78
2023-02-13T23:51:25.458Z,63.28
2023-02-13T23:53:55.931Z,83.03
2023-02-13T23:56:23.908Z,53.17
2023-02-13T23:58:53.179Z,57.70
